Time;durP1;ratioP1;P1;durP2;ratioP2;P2;SDS_P1;SDS_P2;PMS_P1;PMS_P2;Temp;Humidity;BMP_temperature;BMP_pressure;BME280_temperature;BME280_humidity;BME280_pressure;Samples;Min_cycle;Max_cycle;Signal;HPM_P1;HPM_P2
2022/02/16 00:00:08;;;;;;;0.10;0.10;;;;;;;;;;4438582;32;20064;-55
2022/02/16 00:02:39;;;;;;;0.47;0.30;;;;;;;;;;4428564;32;20073;-54
2022/02/16 00:05:08;;;;;;;0.47;0.20;;;;;;;;;;4444849;32;20030;-56
2022/02/16 00:07:39;;;;;;;0.52;0.10;;;;;;;;;;4434890;32;20372;-55
2022/02/16 00:10:09;;;;;;;0.20;0.20;;;;;;;;;;4431391;32;20421;-55
2022/02/16 00:12:37;;;;;;;0.65;0.20;;;;;;;;;;4442783;32;20117;-56
2022/02/16 00:15:06;;;;;;;0.57;0.28;;;;;;;;;;4444016;32;20046;-55
2022/02/16 00:17:36;;;;;;;0.60;0.20;;;;;;;;;;4437938;32;20462;-53
2022/02/16 00:20:05;;;;;;;3.28;0.28;;;;;;;;;;4435733;32;20060;-57
2022/02/16 00:22:33;;;;;;;0.20;0.17;;;;;;;;;;4429055;32;20086;-55
2022/02/16 00:25:03;;;;;;;0.98;0.20;;;;;;;;;;4432235;32;20064;-53
2022/02/16 00:27:32;;;;;;;0.57;0.20;;;;;;;;;;4438456;32;20046;-57
2022/02/16 00:30:00;;;;;;;0.50;0.22;;;;;;;;;;4434647;32;20105;-56
2022/02/16 00:32:31;;;;;;;1.55;0.25;;;;;;;;;;4436827;32;20471;-56
2022/02/16 00:35:00;;;;;;;1.98;0.25;;;;;;;;;;4442076;32;20090;-55
2022/02/16 00:37:29;;;;;;;1.00;0.20;;;;;;;;;;4435726;32;20092;-56
2022/02/16 00:39:58;;;;;;;0.20;0.10;;;;;;;;;;4433429;32;20042;-56
2022/02/16 00:42:27;;;;;;;0.57;0.30;;;;;;;;;;4437793;32;20049;-53
2022/02/16 00:44:55;;;;;;;0.13;0.10;;;;;;;;;;4433612;32;20447;-56
2022/02/16 00:47:25;;;;;;;0.52;0.22;;;;;;;;;;4427675;32;20037;-56
2022/02/16 00:49:53;;;;;;;1.77;0.30;;;;;;;;;;4438371;32;20064;-57
2022/02/16 00:52:22;;;;;;;1.05;0.20;;;;;;;;;;4431468;32;20395;-55
2022/02/16 00:54:50;;;;;;;0.77;0.28;;;;;;;;;;4440166;32;20054;-54
2022/02/16 00:57:19;;;;;;;0.25;0.20;;;;;;;;;;4441184;32;20168;-53
2022/02/16 00:59:48;;;;;;;0.40;0.20;;;;;;;;;;4443467;32;20113;-53
2022/02/16 01:02:17;;;;;;;1.02;0.20;;;;;;;;;;4429074;32;20045;-56
2022/02/16 01:04:47;;;;;;;0.62;0.20;;;;;;;;;;4431629;32;20069;-54
2022/02/16 01:07:16;;;;;;;0.20;0.15;;;;;;;;;;4439341;32;20424;-54
2022/02/16 01:09:44;;;;;;;0.45;0.20;;;;;;;;;;4438982;32;20038;-56
2022/02/16 01:12:13;;;;;;;0.22;0.20;;;;;;;;;;4440165;32;20055;-55
2022/02/16 01:14:42;;;;;;;0.55;0.25;;;;;;;;;;4439417;32;20424;-55
2022/02/16 01:17:10;;;;;;;0.40;0.20;;;;;;;;;;4439378;32;20093;-56
2022/02/16 01:19:39;;;;;;;0.60;0.20;;;;;;;;;;4436195;32;20126;-56
2022/02/16 01:22:07;;;;;;;0.77;0.10;;;;;;;;;;4434299;32;20049;-54
2022/02/16 01:24:36;;;;;;;0.20;0.20;;;;;;;;;;4432344;32;20046;-56
2022/02/16 01:27:05;;;;;;;0.20;0.20;;;;;;;;;;4436731;32;20061;-56
2022/02/16 01:29:34;;;;;;;0.80;0.32;;;;;;;;;;4439545;32;20133;-56
2022/02/16 01:32:02;;;;;;;1.37;0.20;;;;;;;;;;4436395;32;20098;-53
2022/02/16 01:34:31;;;;;;;0.80;0.20;;;;;;;;;;4442256;32;20049;-53
2022/02/16 01:36:59;;;;;;;0.20;0.20;;;;;;;;;;4426388;32;20153;-53
2022/02/16 01:39:27;;;;;;;0.32;0.17;;;;;;;;;;4435556;32;20090;-53
2022/02/16 01:41:56;;;;;;;0.22;0.10;;;;;;;;;;4432640;32;20041;-56
2022/02/16 01:44:24;;;;;;;0.62;0.30;;;;;;;;;;4438623;32;20042;-56
2022/02/16 01:47:04;;;;;;;0.68;0.20;;;;;;;;;;4436120;32;20094;-56
2022/02/16 01:49:34;;;;;;;0.65;0.32;;;;;;;;;;4438313;32;20373;-55
2022/02/16 01:52:06;;;;;;;0.22;0.20;;;;;;;;;;4436263;32;20092;-54
2022/02/16 01:54:35;;;;;;;1.55;0.22;;;;;;;;;;4436360;32;20042;-55
2022/02/16 01:57:07;;;;;;;0.32;0.20;;;;;;;;;;4436358;32;20494;-55
2022/02/16 01:59:36;;;;;;;1.50;0.20;;;;;;;;;;4437746;32;20038;-53
2022/02/16 02:02:07;;;;;;;0.20;0.15;;;;;;;;;;4433637;32;20433;-56
2022/02/16 02:04:36;;;;;;;0.80;0.30;;;;;;;;;;4433013;32;20061;-55
2022/02/16 02:07:04;;;;;;;0.57;0.13;;;;;;;;;;4430350;32;20416;-54
2022/02/16 02:09:32;;;;;;;1.30;0.30;;;;;;;;;;4441077;32;20388;-54
2022/02/16 02:12:01;;;;;;;0.30;0.22;;;;;;;;;;4440500;32;20042;-56
2022/02/16 02:14:30;;;;;;;1.17;0.20;;;;;;;;;;4444599;32;20121;-53
2022/02/16 02:16:59;;;;;;;0.93;0.28;;;;;;;;;;4442789;32;20082;-56
2022/02/16 02:19:28;;;;;;;1.08;0.28;;;;;;;;;;4437807;32;20137;-52
2022/02/16 02:21:56;;;;;;;0.70;0.17;;;;;;;;;;4428748;32;20052;-52
2022/02/16 02:24:25;;;;;;;0.70;0.30;;;;;;;;;;4434063;32;20097;-55
2022/02/16 02:26:53;;;;;;;0.10;0.10;;;;;;;;;;4433442;32;20057;-54
2022/02/16 02:29:22;;;;;;;0.45;0.28;;;;;;;;;;4437466;32;21280;-56
2022/02/16 02:31:53;;;;;;;0.50;0.20;;;;;;;;;;4432207;32;20046;-54
2022/02/16 02:34:22;;;;;;;1.33;0.20;;;;;;;;;;4439496;32;20046;-53
2022/02/16 02:36:50;;;;;;;0.30;0.20;;;;;;;;;;4444134;32;20112;-54
2022/02/16 02:39:19;;;;;;;0.82;0.25;;;;;;;;;;4445654;32;20042;-52
2022/02/16 02:41:48;;;;;;;0.40;0.20;;;;;;;;;;4437557;32;20046;-54
2022/02/16 02:44:17;;;;;;;0.50;0.20;;;;;;;;;;4429078;32;20043;-56
2022/02/16 02:46:46;;;;;;;0.40;0.20;;;;;;;;;;4432525;32;20604;-56
2022/02/16 02:49:16;;;;;;;0.70;0.22;;;;;;;;;;4427221;32;20065;-54
2022/02/16 02:51:45;;;;;;;0.70;0.25;;;;;;;;;;4429106;32;20122;-55
2022/02/16 02:54:14;;;;;;;0.40;0.13;;;;;;;;;;4437132;32;20042;-55
2022/02/16 02:56:43;;;;;;;0.88;0.30;;;;;;;;;;4432483;32;20428;-53
2022/02/16 02:59:13;;;;;;;0.62;0.30;;;;;;;;;;4437944;32;20061;-54
2022/02/16 03:01:42;;;;;;;0.60;0.20;;;;;;;;;;4449551;32;20528;-54
2022/02/16 03:04:10;;;;;;;1.05;0.40;;;;;;;;;;4443369;32;20085;-53
2022/02/16 03:06:38;;;;;;;1.05;0.40;;;;;;;;;;4437538;32;20098;-55
2022/02/16 03:09:07;;;;;;;0.57;0.30;;;;;;;;;;4435503;32;20054;-56
2022/02/16 03:11:35;;;;;;;0.50;0.20;;;;;;;;;;4431107;32;20041;-56
2022/02/16 03:14:04;;;;;;;2.50;0.20;;;;;;;;;;4438844;32;20432;-56
2022/02/16 03:16:35;;;;;;;0.90;0.28;;;;;;;;;;4433956;32;20399;-53
2022/02/16 03:19:05;;;;;;;0.40;0.20;;;;;;;;;;4447371;32;20098;-56
2022/02/16 03:21:34;;;;;;;0.80;0.40;;;;;;;;;;4441491;32;20099;-52
2022/02/16 03:24:02;;;;;;;0.43;0.20;;;;;;;;;;4443086;32;20063;-56
2022/02/16 03:26:31;;;;;;;0.43;0.30;;;;;;;;;;4444505;32;20428;-54
2022/02/16 03:28:59;;;;;;;1.60;0.30;;;;;;;;;;4441174;32;20076;-55
2022/02/16 03:31:30;;;;;;;0.40;0.40;;;;;;;;;;4442411;32;20089;-55
2022/02/16 03:33:59;;;;;;;0.90;0.28;;;;;;;;;;4429611;32;20042;-53
2022/02/16 03:36:27;;;;;;;1.60;0.20;;;;;;;;;;4441319;32;20091;-56
2022/02/16 03:38:57;;;;;;;0.25;0.20;;;;;;;;;;4438959;32;20538;-54
2022/02/16 03:41:26;;;;;;;0.62;0.20;;;;;;;;;;4442433;32;20053;-54
2022/02/16 03:43:55;;;;;;;0.30;0.20;;;;;;;;;;4438006;32;20038;-55
2022/02/16 03:46:24;;;;;;;0.45;0.20;;;;;;;;;;4437595;32;20480;-54
2022/02/16 03:48:53;;;;;;;0.82;0.28;;;;;;;;;;4439533;32;20326;-55
2022/02/16 03:51:21;;;;;;;0.85;0.20;;;;;;;;;;4436122;32;20033;-53
2022/02/16 03:53:50;;;;;;;0.90;0.30;;;;;;;;;;4433239;32;20498;-55
2022/02/16 03:56:19;;;;;;;0.68;0.20;;;;;;;;;;4444117;32;20058;-56
2022/02/16 03:58:47;;;;;;;1.40;0.20;;;;;;;;;;4439074;32;20038;-53
2022/02/16 04:01:16;;;;;;;1.30;0.40;;;;;;;;;;4434343;32;20046;-56
2022/02/16 04:03:44;;;;;;;0.80;0.30;;;;;;;;;;4434532;32;20090;-53
2022/02/16 04:06:13;;;;;;;0.70;0.22;;;;;;;;;;4441269;32;20364;-53
2022/02/16 04:08:41;;;;;;;0.73;0.20;;;;;;;;;;4448084;32;20192;-54
2022/02/16 04:11:10;;;;;;;0.73;0.20;;;;;;;;;;4439466;32;20632;-54
2022/02/16 04:13:39;;;;;;;0.20;0.20;;;;;;;;;;4438201;32;20042;-53
2022/02/16 04:16:07;;;;;;;0.45;0.20;;;;;;;;;;4440058;32;20057;-54
2022/02/16 04:18:36;;;;;;;1.27;0.40;;;;;;;;;;4445906;32;20050;-54
2022/02/16 04:21:04;;;;;;;0.43;0.20;;;;;;;;;;4438295;32;20041;-52
2022/02/16 04:23:33;;;;;;;0.95;0.30;;;;;;;;;;4434706;32;20042;-55
2022/02/16 04:26:02;;;;;;;0.52;0.30;;;;;;;;;;4447779;32;20068;-56
2022/02/16 04:28:30;;;;;;;1.27;0.22;;;;;;;;;;4446651;32;20073;-53
2022/02/16 04:30:58;;;;;;;0.40;0.20;;;;;;;;;;4438543;32;20056;-57
2022/02/16 04:33:30;;;;;;;1.25;0.20;;;;;;;;;;4446543;32;20106;-56
2022/02/16 04:35:58;;;;;;;1.08;0.30;;;;;;;;;;4438708;32;20074;-56
2022/02/16 04:38:26;;;;;;;0.80;0.20;;;;;;;;;;4427118;32;20042;-53
2022/02/16 04:40:55;;;;;;;0.40;0.20;;;;;;;;;;4430704;32;20065;-56
2022/02/16 04:43:23;;;;;;;0.60;0.30;;;;;;;;;;4431720;32;20429;-53
2022/02/16 04:45:57;;;;;;;1.33;0.20;;;;;;;;;;4436600;32;20057;-54
2022/02/16 04:48:25;;;;;;;0.60;0.22;;;;;;;;;;4432975;32;20134;-52
2022/02/16 04:50:53;;;;;;;0.37;0.20;;;;;;;;;;4432243;32;20105;-54
2022/02/16 04:53:22;;;;;;;0.85;0.28;;;;;;;;;;4432197;32;20079;-56
2022/02/16 04:55:52;;;;;;;0.80;0.30;;;;;;;;;;4434111;32;20094;-54
2022/02/16 04:58:20;;;;;;;0.62;0.20;;;;;;;;;;4431870;32;20038;-55
2022/02/16 05:00:49;;;;;;;0.62;0.20;;;;;;;;;;4441037;32;20052;-54
2022/02/16 05:03:18;;;;;;;0.57;0.30;;;;;;;;;;4435166;32;20428;-53
2022/02/16 05:05:46;;;;;;;0.75;0.28;;;;;;;;;;4444201;32;20054;-55
2022/02/16 05:08:15;;;;;;;0.32;0.20;;;;;;;;;;4435567;32;20056;-56
2022/02/16 05:10:44;;;;;;;1.27;0.32;;;;;;;;;;4436919;32;20046;-56
2022/02/16 05:13:14;;;;;;;0.60;0.30;;;;;;;;;;4429973;32;20065;-54
2022/02/16 05:15:43;;;;;;;0.73;0.25;;;;;;;;;;4429776;32;20052;-53
2022/02/16 05:18:11;;;;;;;0.73;0.30;;;;;;;;;;4438839;32;20086;-55
2022/02/16 05:20:39;;;;;;;0.40;0.20;;;;;;;;;;4434000;32;20092;-53
2022/02/16 05:23:08;;;;;;;1.98;0.40;;;;;;;;;;4444431;32;20033;-56
2022/02/16 05:25:37;;;;;;;2.20;0.40;;;;;;;;;;4432144;32;20068;-55
2022/02/16 05:28:06;;;;;;;0.80;0.20;;;;;;;;;;4437875;32;20376;-55
2022/02/16 05:30:34;;;;;;;0.30;0.22;;;;;;;;;;4438796;32;20025;-55
2022/02/16 05:33:03;;;;;;;0.80;0.30;;;;;;;;;;4443375;32;20129;-55
2022/02/16 05:35:31;;;;;;;0.57;0.20;;;;;;;;;;4427528;32;20130;-54
2022/02/16 05:38:00;;;;;;;1.37;0.28;;;;;;;;;;4445275;32;20038;-53
2022/02/16 05:40:28;;;;;;;0.93;0.30;;;;;;;;;;4434074;32;20086;-56
2022/02/16 05:42:57;;;;;;;0.70;0.22;;;;;;;;;;4427514;32;20399;-52
2022/02/16 05:45:26;;;;;;;0.68;0.28;;;;;;;;;;4443031;32;20468;-53
2022/02/16 05:47:54;;;;;;;0.60;0.30;;;;;;;;;;4439077;32;20102;-55
2022/02/16 05:50:22;;;;;;;0.52;0.30;;;;;;;;;;4442521;32;20407;-53
2022/02/16 05:52:51;;;;;;;0.65;0.32;;;;;;;;;;4446589;32;20068;-53
2022/02/16 05:55:20;;;;;;;0.65;0.20;;;;;;;;;;4438784;32;20504;-53
2022/02/16 05:57:48;;;;;;;0.20;0.20;;;;;;;;;;4443655;32;20034;-53
2022/02/16 06:00:18;;;;;;;1.83;0.30;;;;;;;;;;4435123;32;20042;-52
2022/02/16 06:02:46;;;;;;;0.75;0.40;;;;;;;;;;4443524;32;20034;-55
2022/02/16 06:05:15;;;;;;;1.45;0.22;;;;;;;;;;4446474;32;20554;-52
2022/02/16 06:07:43;;;;;;;0.13;0.13;;;;;;;;;;4437494;32;20038;-55
2022/02/16 06:10:12;;;;;;;0.32;0.22;;;;;;;;;;4439739;32;20041;-52
2022/02/16 06:12:41;;;;;;;1.00;0.37;;;;;;;;;;4442849;32;20080;-53
2022/02/16 06:15:10;;;;;;;0.68;0.30;;;;;;;;;;4431295;32;20085;-53
2022/02/16 06:17:39;;;;;;;0.68;0.37;;;;;;;;;;4439990;32;20053;-54
2022/02/16 06:20:08;;;;;;;0.32;0.20;;;;;;;;;;4440231;32;20046;-54
2022/02/16 06:22:36;;;;;;;0.93;0.20;;;;;;;;;;4438549;32;20038;-55
2022/02/16 06:25:08;;;;;;;0.30;0.20;;;;;;;;;;4435066;32;20093;-54
2022/02/16 06:27:37;;;;;;;0.30;0.20;;;;;;;;;;4434664;32;20042;-52
2022/02/16 06:30:06;;;;;;;0.43;0.20;;;;;;;;;;4443314;32;20037;-53
2022/02/16 06:32:36;;;;;;;0.68;0.28;;;;;;;;;;4440299;32;20072;-55
2022/02/16 06:35:05;;;;;;;0.47;0.30;;;;;;;;;;4440753;32;20073;-54
2022/02/16 06:37:34;;;;;;;0.60;0.25;;;;;;;;;;4440350;32;20115;-52
2022/02/16 06:40:03;;;;;;;0.47;0.30;;;;;;;;;;4443345;32;20046;-56
2022/02/16 06:42:32;;;;;;;0.73;0.30;;;;;;;;;;4429405;32;20053;-52
2022/02/16 06:45:00;;;;;;;1.65;0.30;;;;;;;;;;4440531;32;20070;-53
2022/02/16 06:47:29;;;;;;;0.60;0.28;;;;;;;;;;4434982;32;20082;-54
2022/02/16 06:49:58;;;;;;;1.10;0.25;;;;;;;;;;4441075;32;20045;-53
2022/02/16 06:52:26;;;;;;;2.92;0.45;;;;;;;;;;4441062;32;20170;-52
2022/02/16 06:54:55;;;;;;;0.73;0.30;;;;;;;;;;4435673;32;20387;-56
2022/02/16 06:57:23;;;;;;;1.12;0.47;;;;;;;;;;4430153;32;20050;-52
2022/02/16 06:59:51;;;;;;;0.20;0.20;;;;;;;;;;4425733;32;20134;-56
2022/02/16 07:02:20;;;;;;;0.93;0.20;;;;;;;;;;4447854;32;20349;-52
2022/02/16 07:04:49;;;;;;;2.10;0.30;;;;;;;;;;4437151;32;20046;-53
2022/02/16 07:07:17;;;;;;;0.68;0.30;;;;;;;;;;4428042;32;20485;-53
2022/02/16 07:09:46;;;;;;;1.00;0.30;;;;;;;;;;4431654;32;20146;-53
2022/02/16 07:12:14;;;;;;;1.05;0.37;;;;;;;;;;4443426;32;20042;-53
2022/02/16 07:14:47;;;;;;;0.43;0.32;;;;;;;;;;4427363;32;20388;-52
2022/02/16 07:17:16;;;;;;;1.98;0.37;;;;;;;;;;4435043;32;20426;-53
2022/02/16 07:19:45;;;;;;;0.95;0.35;;;;;;;;;;4430051;32;20049;-53
2022/02/16 07:22:14;;;;;;;0.93;0.30;;;;;;;;;;4440198;32;20046;-53
2022/02/16 07:24:43;;;;;;;1.98;0.30;;;;;;;;;;4432627;32;20042;-53
2022/02/16 07:27:11;;;;;;;2.37;0.30;;;;;;;;;;4434499;32;20077;-53
2022/02/16 07:29:40;;;;;;;0.32;0.20;;;;;;;;;;4433170;32;20433;-51
2022/02/16 07:32:08;;;;;;;0.30;0.22;;;;;;;;;;4428115;32;20042;-52
2022/02/16 07:34:37;;;;;;;0.22;0.22;;;;;;;;;;4430568;32;20105;-54
2022/02/16 07:37:06;;;;;;;1.62;0.20;;;;;;;;;;4444675;32;20053;-52
2022/02/16 07:39:34;;;;;;;0.68;0.30;;;;;;;;;;4440064;32;20072;-54
2022/02/16 07:42:03;;;;;;;2.03;0.30;;;;;;;;;;4443695;32;20038;-53
2022/02/16 07:44:34;;;;;;;0.60;0.30;;;;;;;;;;4449799;32;20048;-55
2022/02/16 07:47:08;;;;;;;0.30;0.20;;;;;;;;;;4426849;32;20042;-53
2022/02/16 07:49:37;;;;;;;0.82;0.40;;;;;;;;;;4433353;32;20045;-54
2022/02/16 07:52:09;;;;;;;1.50;0.30;;;;;;;;;;4433699;32;20045;-52
2022/02/16 07:54:38;;;;;;;2.17;0.22;;;;;;;;;;4440746;32;20054;-54
2022/02/16 07:57:09;;;;;;;0.25;0.20;;;;;;;;;;4443423;32;20042;-55
2022/02/16 07:59:37;;;;;;;0.90;0.40;;;;;;;;;;4439339;32;20060;-54
2022/02/16 08:02:08;;;;;;;0.55;0.25;;;;;;;;;;4432570;32;20030;-53
2022/02/16 08:04:38;;;;;;;0.95;0.20;;;;;;;;;;4431846;32;20462;-53
2022/02/16 08:07:07;;;;;;;0.68;0.30;;;;;;;;;;4426518;32;20068;-54
2022/02/16 08:09:35;;;;;;;0.60;0.30;;;;;;;;;;4432909;32;20429;-51
2022/02/16 08:12:04;;;;;;;0.52;0.30;;;;;;;;;;4440428;32;20033;-51
2022/02/16 08:14:33;;;;;;;0.20;0.20;;;;;;;;;;4441553;32;20046;-51
2022/02/16 08:17:02;;;;;;;0.32;0.20;;;;;;;;;;4434557;32;20053;-51
2022/02/16 08:19:31;;;;;;;1.15;0.30;;;;;;;;;;4440031;32;20087;-52
2022/02/16 08:21:59;;;;;;;0.98;0.37;;;;;;;;;;4435599;32;20038;-51
2022/02/16 08:24:28;;;;;;;0.75;0.43;;;;;;;;;;4434674;32;20126;-52
2022/02/16 08:26:59;;;;;;;0.90;0.35;;;;;;;;;;4437378;32;20333;-53
2022/02/16 08:29:28;;;;;;;1.25;0.20;;;;;;;;;;4440618;32;20102;-54
2022/02/16 08:31:57;;;;;;;0.73;0.20;;;;;;;;;;4433551;32;20074;-52
2022/02/16 08:34:29;;;;;;;0.55;0.20;;;;;;;;;;4434023;32;20459;-55
2022/02/16 08:36:58;;;;;;;2.42;0.40;;;;;;;;;;4434387;32;20101;-51
2022/02/16 08:39:27;;;;;;;1.20;0.28;;;;;;;;;;4438698;32;20049;-53
2022/02/16 08:41:56;;;;;;;0.47;0.30;;;;;;;;;;4443943;32;20349;-54
2022/02/16 08:44:24;;;;;;;1.95;0.20;;;;;;;;;;4438931;32;20022;-54
2022/02/16 08:46:52;;;;;;;1.33;0.35;;;;;;;;;;4437567;32;20045;-52
2022/02/16 08:49:21;;;;;;;0.75;0.30;;;;;;;;;;4436563;32;20443;-52
2022/02/16 08:51:49;;;;;;;0.22;0.20;;;;;;;;;;4445163;32;20037;-51
2022/02/16 08:54:17;;;;;;;0.40;0.30;;;;;;;;;;4436891;32;20054;-51
2022/02/16 08:56:46;;;;;;;2.60;0.20;;;;;;;;;;4431636;32;20072;-51
2022/02/16 08:59:14;;;;;;;1.45;0.35;;;;;;;;;;4431486;32;20046;-50
2022/02/16 09:01:43;;;;;;;1.87;0.40;;;;;;;;;;4427569;32;20042;-54
2022/02/16 09:04:11;;;;;;;0.52;0.20;;;;;;;;;;4438011;32;20089;-52
2022/02/16 09:07:27;;;;;;;0.35;0.20;;;;;;;;;;4431859;32;20498;-51
2022/02/16 09:09:28;;;;;;;0.60;0.30;;;;;;;;;;4430862;32;20030;-53
2022/02/16 09:11:56;;;;;;;0.80;0.28;;;;;;;;;;4434133;32;20094;-54
2022/02/16 09:14:25;;;;;;;1.35;0.30;;;;;;;;;;4436566;32;20046;-54
2022/02/16 09:16:53;;;;;;;0.77;0.30;;;;;;;;;;4432144;32;20125;-54
2022/02/16 09:19:22;;;;;;;0.82;0.30;;;;;;;;;;4436966;32;20041;-53
2022/02/16 09:21:51;;;;;;;0.30;0.25;;;;;;;;;;4431889;32;20041;-53
2022/02/16 09:24:20;;;;;;;0.40;0.20;;;;;;;;;;4437088;32;20493;-55
2022/02/16 09:26:52;;;;;;;1.00;0.30;;;;;;;;;;4424702;32;20035;-52
2022/02/16 09:29:20;;;;;;;0.57;0.30;;;;;;;;;;4430858;32;20050;-52
2022/02/16 09:31:53;;;;;;;0.30;0.20;;;;;;;;;;4433010;32;20080;-51
2022/02/16 09:34:22;;;;;;;0.50;0.28;;;;;;;;;;4442479;32;20426;-53
2022/02/16 09:36:50;;;;;;;0.85;0.30;;;;;;;;;;4431385;32;20335;-52
2022/02/16 09:39:19;;;;;;;0.98;0.30;;;;;;;;;;4436197;32;20455;-55
2022/02/16 09:41:47;;;;;;;1.05;0.30;;;;;;;;;;4438479;32;20131;-51
2022/02/16 09:44:17;;;;;;;1.37;0.20;;;;;;;;;;4430789;32;20033;-52
2022/02/16 09:46:46;;;;;;;0.77;0.20;;;;;;;;;;4442937;32;20042;-53
2022/02/16 09:49:15;;;;;;;1.27;0.35;;;;;;;;;;4430210;32;20050;-55
2022/02/16 09:51:43;;;;;;;2.08;0.30;;;;;;;;;;4425123;32;20096;-55
2022/02/16 09:54:12;;;;;;;0.80;0.22;;;;;;;;;;4434530;32;20042;-56
2022/02/16 09:56:44;;;;;;;0.55;0.37;;;;;;;;;;4438530;32;20038;-54
2022/02/16 09:59:13;;;;;;;0.47;0.20;;;;;;;;;;4445837;32;20089;-56
2022/02/16 10:01:58;;;;;;;0.47;0.20;;;;;;;;;;4436522;32;20466;-52
2022/02/16 10:04:27;;;;;;;3.50;0.35;;;;;;;;;;4431626;32;20387;-52
2022/02/16 10:06:56;;;;;;;0.95;0.30;;;;;;;;;;4436951;32;20106;-54
2022/02/16 10:09:27;;;;;;;0.52;0.20;;;;;;;;;;4423524;32;20078;-55
2022/02/16 10:11:59;;;;;;;0.43;0.22;;;;;;;;;;4432899;32;20356;-54
2022/02/16 10:14:29;;;;;;;0.55;0.30;;;;;;;;;;4432107;32;20140;-55
2022/02/16 10:17:04;;;;;;;3.72;0.30;;;;;;;;;;4431255;32;20088;-55
2022/02/16 10:19:50;;;;;;;1.02;0.30;;;;;;;;;;4435766;32;20034;-55
2022/02/16 10:22:20;;;;;;;1.48;0.30;;;;;;;;;;4427116;32;20091;-52
2022/02/16 10:24:49;;;;;;;1.70;0.28;;;;;;;;;;4438055;32;20406;-56
2022/02/16 10:27:17;;;;;;;1.87;0.40;;;;;;;;;;4428879;32;20049;-55
2022/02/16 10:29:46;;;;;;;1.55;0.30;;;;;;;;;;4439707;32;20050;-52
2022/02/16 10:32:34;;;;;;;1.55;0.40;;;;;;;;;;4436089;32;20368;-55
2022/02/16 10:35:03;;;;;;;1.25;0.30;;;;;;;;;;4440480;32;20085;-54
2022/02/16 10:37:31;;;;;;;1.02;0.40;;;;;;;;;;4447013;32;20060;-53
2022/02/16 10:40:02;;;;;;;0.73;0.22;;;;;;;;;;4437695;32;20113;-52
2022/02/16 10:42:33;;;;;;;0.28;0.20;;;;;;;;;;4436379;32;20045;-54
2022/02/16 10:45:21;;;;;;;0.75;0.20;;;;;;;;;;4440348;32;20052;-55
2022/02/16 10:48:03;;;;;;;0.45;0.20;;;;;;;;;;4445254;32;20390;-53
2022/02/16 10:50:33;;;;;;;0.40;0.20;;;;;;;;;;4432343;32;20115;-56
2022/02/16 10:53:03;;;;;;;1.23;0.37;;;;;;;;;;4438570;32;20133;-53
2022/02/16 10:55:39;;;;;;;0.82;0.30;;;;;;;;;;4436519;32;20079;-56
2022/02/16 10:58:09;;;;;;;1.02;0.30;;;;;;;;;;4440151;32;20056;-56
2022/02/16 11:00:39;;;;;;;0.77;0.20;;;;;;;;;;4433800;32;20406;-56
2022/02/16 11:03:08;;;;;;;1.17;0.40;;;;;;;;;;4429497;32;20053;-55
2022/02/16 11:05:40;;;;;;;1.17;0.30;;;;;;;;;;4433750;32;20060;-54
2022/02/16 11:08:13;;;;;;;1.12;0.35;;;;;;;;;;4444845;32;20046;-53
2022/02/16 11:10:43;;;;;;;0.90;0.40;;;;;;;;;;4442027;32;20103;-54
2022/02/16 11:13:12;;;;;;;0.93;0.37;;;;;;;;;;4440812;32;20075;-55
2022/02/16 11:15:40;;;;;;;0.60;0.20;;;;;;;;;;4430001;32;20033;-54
2022/02/16 11:18:13;;;;;;;0.75;0.20;;;;;;;;;;4434863;32;20079;-55
2022/02/16 11:20:42;;;;;;;1.75;0.40;;;;;;;;;;4432177;32;20336;-54
2022/02/16 11:23:14;;;;;;;0.57;0.30;;;;;;;;;;4431748;32;20653;-55
2022/02/16 11:25:45;;;;;;;1.75;0.30;;;;;;;;;;4441489;32;20113;-53
2022/02/16 11:28:33;;;;;;;2.00;0.28;;;;;;;;;;4426009;32;20073;-54
2022/02/16 11:31:02;;;;;;;1.85;0.50;;;;;;;;;;4428929;32;20056;-55
2022/02/16 11:33:31;;;;;;;0.68;0.32;;;;;;;;;;4446191;32;20045;-54
2022/02/16 11:36:06;;;;;;;1.30;0.30;;;;;;;;;;4437568;32;20038;-52
2022/02/16 11:38:40;;;;;;;0.43;0.20;;;;;;;;;;4431975;32;20054;-55
2022/02/16 11:41:22;;;;;;;1.37;0.28;;;;;;;;;;4431541;32;20100;-52
2022/02/16 11:43:55;;;;;;;1.08;0.30;;;;;;;;;;4430972;32;20424;-52
2022/02/16 11:46:39;;;;;;;1.17;0.30;;;;;;;;;;4433172;32;20086;-56
2022/02/16 11:49:27;;;;;;;1.42;0.40;;;;;;;;;;4429266;32;20086;-53
2022/02/16 11:51:57;;;;;;;1.05;0.20;;;;;;;;;;4427131;32;20037;-55
2022/02/16 11:54:42;;;;;;;1.30;0.30;;;;;;;;;;4442008;32;20065;-55
2022/02/16 11:57:29;;;;;;;0.47;0.20;;;;;;;;;;4438805;32;20077;-56
2022/02/16 11:59:57;;;;;;;0.88;0.25;;;;;;;;;;4436842;32;20085;-52
2022/02/16 12:02:26;;;;;;;0.70;0.30;;;;;;;;;;4441660;32;20078;-52
2022/02/16 12:04:56;;;;;;;0.85;0.30;;;;;;;;;;4431777;32;20037;-53
2022/02/16 12:07:26;;;;;;;0.95;0.20;;;;;;;;;;4438747;32;20063;-52
2022/02/16 12:10:14;;;;;;;1.17;0.37;;;;;;;;;;4444453;32;20113;-55
2022/02/16 12:12:44;;;;;;;0.85;0.30;;;;;;;;;;4434559;32;20045;-54
2022/02/16 12:15:35;;;;;;;0.50;0.22;;;;;;;;;;4448144;32;20082;-52
2022/02/16 12:18:04;;;;;;;1.33;0.30;;;;;;;;;;4436247;32;20402;-51
2022/02/16 12:20:33;;;;;;;1.58;0.40;;;;;;;;;;4434619;32;20153;-52
2022/02/16 12:23:02;;;;;;;1.83;0.40;;;;;;;;;;4435546;32;20018;-52
2022/02/16 12:25:33;;;;;;;0.20;0.20;;;;;;;;;;4434741;32;20081;-52
2022/02/16 12:28:02;;;;;;;1.08;0.22;;;;;;;;;;4426736;32;20042;-51
2022/02/16 12:30:49;;;;;;;1.77;0.50;;;;;;;;;;4442050;32;20129;-63
2022/02/16 12:33:38;;;;;;;7.05;1.10;;;;;;;;;;4431742;32;20102;-51
2022/02/16 12:36:07;;;;;;;5.68;1.00;;;;;;;;;;4440910;32;20026;-50
2022/02/16 12:38:36;;;;;;;7.00;1.00;;;;;;;;;;4437932;32;20420;-50
2022/02/16 12:41:10;;;;;;;6.90;1.40;;;;;;;;;;4444969;32;20041;-51
2022/02/16 12:43:49;;;;;;;2.92;1.10;;;;;;;;;;4449647;32;20372;-53
2022/02/16 12:46:17;;;;;;;5.15;1.10;;;;;;;;;;4428551;32;20078;-50
2022/02/16 12:48:46;;;;;;;4.10;1.20;;;;;;;;;;4437239;32;20342;-51
2022/02/16 12:51:24;;;;;;;3.40;1.00;;;;;;;;;;4427828;32;20100;-51
2022/02/16 12:53:53;;;;;;;3.72;0.77;;;;;;;;;;4434327;32;20077;-51
2022/02/16 12:56:21;;;;;;;4.40;1.02;;;;;;;;;;4441020;32;20467;-51
2022/02/16 12:58:51;;;;;;;3.30;0.93;;;;;;;;;;4443231;32;20033;-51
2022/02/16 13:01:29;;;;;;;4.20;1.00;;;;;;;;;;4440367;32;20068;-52
2022/02/16 13:04:04;;;;;;;4.87;0.90;;;;;;;;;;4431869;32;20037;-52
2022/02/16 13:06:37;;;;;;;4.53;1.10;;;;;;;;;;4432709;32;20038;-54
2022/02/16 13:09:05;;;;;;;3.53;0.70;;;;;;;;;;4433100;32;20099;-52
2022/02/16 13:11:44;;;;;;;1.52;0.75;;;;;;;;;;4433450;32;20097;-52
2022/02/16 13:14:14;;;;;;;3.62;0.80;;;;;;;;;;4439590;32;20084;-52
2022/02/16 13:17:15;;;;;;;2.97;0.70;;;;;;;;;;4433766;32;20103;-52
2022/02/16 13:19:45;;;;;;;3.37;0.90;;;;;;;;;;4416053;32;20458;-51
2022/02/16 13:22:15;;;;;;;3.12;0.70;;;;;;;;;;4438536;32;20090;-51
2022/02/16 13:24:51;;;;;;;3.80;0.60;;;;;;;;;;4438007;32;20072;-52
2022/02/16 13:27:19;;;;;;;2.97;0.70;;;;;;;;;;4437039;32;20054;-54
2022/02/16 13:30:05;;;;;;;3.70;0.80;;;;;;;;;;4436138;32;20532;-51
2022/02/16 13:32:38;;;;;;;3.42;0.70;;;;;;;;;;4430126;32;20081;-53
2022/02/16 13:35:14;;;;;;;2.00;0.70;;;;;;;;;;4436284;32;20053;-53
2022/02/16 13:38:00;;;;;;;3.25;0.80;;;;;;;;;;4431771;32;20056;-52
2022/02/16 13:40:29;;;;;;;2.47;0.60;;;;;;;;;;4435919;32;20104;-52
2022/02/16 13:43:04;;;;;;;3.20;0.75;;;;;;;;;;4432322;32;20069;-65
2022/02/16 13:45:33;;;;;;;7.95;1.30;;;;;;;;;;4436085;32;20050;-63
2022/02/16 13:48:03;;;;;;;6.22;1.42;;;;;;;;;;4436727;32;20048;-53
2022/02/16 13:50:42;;;;;;;9.65;1.80;;;;;;;;;;4435777;32;20136;-56
2022/02/16 13:53:11;;;;;;;7.28;1.73;;;;;;;;;;4429229;32;20081;-53
2022/02/16 13:55:49;;;;;;;8.57;1.42;;;;;;;;;;4430741;32;20089;-54
2022/02/16 13:58:23;;;;;;;7.00;1.55;;;;;;;;;;4434153;32;20087;-55
2022/02/16 14:01:11;;;;;;;4.07;1.20;;;;;;;;;;4432178;32;20094;-52
2022/02/16 14:03:41;;;;;;;4.20;1.20;;;;;;;;;;4431616;32;22671;-56
2022/02/16 14:06:12;;;;;;;5.22;1.30;;;;;;;;;;4429937;32;20095;-55
2022/02/16 14:08:41;;;;;;;6.35;1.27;;;;;;;;;;4436081;32;20034;-53
2022/02/16 14:11:18;;;;;;;6.43;1.20;;;;;;;;;;4435814;32;20053;-53
2022/02/16 14:13:47;;;;;;;4.12;1.23;;;;;;;;;;4431107;32;20614;-55
2022/02/16 14:16:15;;;;;;;3.92;1.10;;;;;;;;;;4428691;32;20121;-53
2022/02/16 14:19:22;;;;;;;4.47;1.10;;;;;;;;;;4434956;32;20103;-54
2022/02/16 14:21:39;;;;;;;5.95;1.20;;;;;;;;;;4443927;32;20425;-54
2022/02/16 14:24:08;;;;;;;6.62;1.50;;;;;;;;;;4431278;32;20046;-53
2022/02/16 14:26:37;;;;;;;12.70;1.85;;;;;;;;;;4427229;32;20425;-55
2022/02/16 14:29:06;;;;;;;17.37;2.42;;;;;;;;;;4449378;32;20061;-58
2022/02/16 14:31:36;;;;;;;14.45;2.25;;;;;;;;;;4435750;32;20049;-53
2022/02/16 14:34:17;;;;;;;16.50;2.65;;;;;;;;;;4435543;32;20085;-54
2022/02/16 14:36:48;;;;;;;11.77;2.33;;;;;;;;;;4446459;32;20050;-56
2022/02/16 14:39:17;;;;;;;15.95;2.50;;;;;;;;;;4439241;32;20080;-57
2022/02/16 14:41:46;;;;;;;18.58;2.83;;;;;;;;;;4445246;32;20046;-57
2022/02/16 14:44:14;;;;;;;18.75;2.90;;;;;;;;;;4434812;32;20093;-57
2022/02/16 14:46:44;;;;;;;11.25;2.60;;;;;;;;;;4438786;32;20112;-55
2022/02/16 14:49:13;;;;;;;15.75;2.72;;;;;;;;;;4442910;32;20354;-55
2022/02/16 14:51:43;;;;;;;17.92;2.70;;;;;;;;;;4439837;32;20038;-56
2022/02/16 14:54:19;;;;;;;12.25;2.80;;;;;;;;;;4432680;32;20033;-54
2022/02/16 14:56:47;;;;;;;12.00;2.37;;;;;;;;;;4448877;32;20094;-56
2022/02/16 14:59:15;;;;;;;10.55;2.60;;;;;;;;;;4442243;32;20042;-54
2022/02/16 15:01:45;;;;;;;16.12;2.83;;;;;;;;;;4433797;32;20054;-58